sensor_id;sensor_type;location;lat;lon;timestamp;temperature;humidity
3626;DHT22;1827;50.534;8.316;2022-09-09T00:00:05;13.40;99.90
3626;DHT22;1827;50.534;8.316;2022-09-09T00:02:32;13.40;99.90
3626;DHT22;1827;50.534;8.316;2022-09-09T00:04:58;13.40;99.90
3626;DHT22;1827;50.534;8.316;2022-09-09T00:07:46;13.40;99.90
3626;DHT22;1827;50.534;8.316;2022-09-09T00:10:15;13.30;99.90
3626;DHT22;1827;50.534;8.316;2022-09-09T00:15:14;13.50;99.90
3626;DHT22;1827;50.534;8.316;2022-09-09T00:17:43;13.60;99.90
3626;DHT22;1827;50.534;8.316;2022-09-09T00:20:12;13.50;99.90
3626;DHT22;1827;50.534;8.316;2022-09-09T00:23:03;13.40;99.90
3626;DHT22;1827;50.534;8.316;2022-09-09T00:25:30;13.40;99.90
3626;DHT22;1827;50.534;8.316;2022-09-09T00:27:59;13.20;99.90
3626;DHT22;1827;50.534;8.316;2022-09-09T00:30:26;13.30;99.90
3626;DHT22;1827;50.534;8.316;2022-09-09T00:32:59;13.30;99.90
3626;DHT22;1827;50.534;8.316;2022-09-09T00:35:29;13.20;99.90
3626;DHT22;1827;50.534;8.316;2022-09-09T00:37:57;13.00;99.90
3626;DHT22;1827;50.534;8.316;2022-09-09T00:40:31;12.90;99.90
3626;DHT22;1827;50.534;8.316;2022-09-09T00:45:47;12.80;99.90
3626;DHT22;1827;50.534;8.316;2022-09-09T00:48:16;12.80;99.90
3626;DHT22;1827;50.534;8.316;2022-09-09T00:50:47;12.70;99.90
3626;DHT22;1827;50.534;8.316;2022-09-09T00:53:33;12.70;99.90
3626;DHT22;1827;50.534;8.316;2022-09-09T00:58:34;12.70;99.90
3626;DHT22;1827;50.534;8.316;2022-09-09T01:01:07;12.70;99.90
3626;DHT22;1827;50.534;8.316;2022-09-09T01:03:38;12.60;99.90
3626;DHT22;1827;50.534;8.316;2022-09-09T01:06:12;12.60;99.90
3626;DHT22;1827;50.534;8.316;2022-09-09T01:08:42;12.70;99.90
3626;DHT22;1827;50.534;8.316;2022-09-09T01:13:49;12.70;99.90
3626;DHT22;1827;50.534;8.316;2022-09-09T01:16:21;12.70;99.90
3626;DHT22;1827;50.534;8.316;2022-09-09T01:18:49;12.70;99.90
3626;DHT22;1827;50.534;8.316;2022-09-09T01:26:42;12.70;99.90
3626;DHT22;1827;50.534;8.316;2022-09-09T01:29:23;12.60;99.90
3626;DHT22;1827;50.534;8.316;2022-09-09T01:32:35;12.60;99.90
3626;DHT22;1827;50.534;8.316;2022-09-09T01:34:45;12.50;99.90
3626;DHT22;1827;50.534;8.316;2022-09-09T01:37:23;12.60;99.90
3626;DHT22;1827;50.534;8.316;2022-09-09T01:39:51;12.50;99.90
3626;DHT22;1827;50.534;8.316;2022-09-09T01:42:19;12.60;99.90
3626;DHT22;1827;50.534;8.316;2022-09-09T01:44:48;12.60;99.90
3626;DHT22;1827;50.534;8.316;2022-09-09T01:47:14;12.70;99.90
3626;DHT22;1827;50.534;8.316;2022-09-09T01:50:01;12.70;99.90
3626;DHT22;1827;50.534;8.316;2022-09-09T01:52:29;12.80;99.90
3626;DHT22;1827;50.534;8.316;2022-09-09T01:54:56;12.80;99.90
3626;DHT22;1827;50.534;8.316;2022-09-09T01:57:37;12.80;99.90
3626;DHT22;1827;50.534;8.316;2022-09-09T02:00:09;12.80;99.90
3626;DHT22;1827;50.534;8.316;2022-09-09T02:02:45;12.90;99.90
3626;DHT22;1827;50.534;8.316;2022-09-09T02:07:47;12.90;99.90
3626;DHT22;1827;50.534;8.316;2022-09-09T02:10:46;12.90;99.90
3626;DHT22;1827;50.534;8.316;2022-09-09T02:13:16;13.00;99.90
3626;DHT22;1827;50.534;8.316;2022-09-09T02:15:52;13.00;99.90
3626;DHT22;1827;50.534;8.316;2022-09-09T02:18:21;13.00;99.90
3626;DHT22;1827;50.534;8.316;2022-09-09T02:20:53;13.10;99.90
3626;DHT22;1827;50.534;8.316;2022-09-09T02:23:18;13.10;99.90
3626;DHT22;1827;50.534;8.316;2022-09-09T02:25:48;13.20;99.90
3626;DHT22;1827;50.534;8.316;2022-09-09T02:28:21;13.20;99.90
3626;DHT22;1827;50.534;8.316;2022-09-09T02:30:49;13.30;99.90
3626;DHT22;1827;50.534;8.316;2022-09-09T02:33:26;13.30;99.90
3626;DHT22;1827;50.534;8.316;2022-09-09T02:35:53;13.50;99.90
3626;DHT22;1827;50.534;8.316;2022-09-09T02:38:23;13.70;99.90
3626;DHT22;1827;50.534;8.316;2022-09-09T02:40:56;13.80;99.90
3626;DHT22;1827;50.534;8.316;2022-09-09T02:43:23;13.70;99.90
3626;DHT22;1827;50.534;8.316;2022-09-09T02:48:36;13.50;99.90
3626;DHT22;1827;50.534;8.316;2022-09-09T02:51:07;13.50;99.90
3626;DHT22;1827;50.534;8.316;2022-09-09T02:56:05;13.70;99.90
3626;DHT22;1827;50.534;8.316;2022-09-09T02:58:37;13.70;99.90
3626;DHT22;1827;50.534;8.316;2022-09-09T03:01:05;13.70;99.90
3626;DHT22;1827;50.534;8.316;2022-09-09T03:03:31;13.60;99.90
3626;DHT22;1827;50.534;8.316;2022-09-09T03:06:01;13.60;99.90
3626;DHT22;1827;50.534;8.316;2022-09-09T03:08:28;13.70;99.90
3626;DHT22;1827;50.534;8.316;2022-09-09T03:10:55;13.80;99.90
3626;DHT22;1827;50.534;8.316;2022-09-09T03:13:22;13.70;99.90
3626;DHT22;1827;50.534;8.316;2022-09-09T03:15:48;13.80;99.90
3626;DHT22;1827;50.534;8.316;2022-09-09T03:18:17;13.70;99.90
3626;DHT22;1827;50.534;8.316;2022-09-09T03:20:48;13.80;99.90
3626;DHT22;1827;50.534;8.316;2022-09-09T03:23:18;13.90;99.90
3626;DHT22;1827;50.534;8.316;2022-09-09T03:25:48;14.00;99.90
3626;DHT22;1827;50.534;8.316;2022-09-09T03:28:18;13.90;99.90
3626;DHT22;1827;50.534;8.316;2022-09-09T03:30:47;13.90;99.90
3626;DHT22;1827;50.534;8.316;2022-09-09T03:33:14;13.90;99.90
3626;DHT22;1827;50.534;8.316;2022-09-09T03:35:46;13.80;99.90
3626;DHT22;1827;50.534;8.316;2022-09-09T03:38:16;13.80;99.90
3626;DHT22;1827;50.534;8.316;2022-09-09T03:40:49;13.70;99.90
3626;DHT22;1827;50.534;8.316;2022-09-09T03:43:18;13.70;99.90
3626;DHT22;1827;50.534;8.316;2022-09-09T03:45:47;13.80;99.90
3626;DHT22;1827;50.534;8.316;2022-09-09T03:48:14;13.80;99.90
3626;DHT22;1827;50.534;8.316;2022-09-09T03:50:50;13.80;99.90
3626;DHT22;1827;50.534;8.316;2022-09-09T03:53:16;14.00;99.90
3626;DHT22;1827;50.534;8.316;2022-09-09T03:55:46;14.10;99.90
3626;DHT22;1827;50.534;8.316;2022-09-09T03:58:15;14.30;99.90
3626;DHT22;1827;50.534;8.316;2022-09-09T04:00:44;14.40;99.90
3626;DHT22;1827;50.534;8.316;2022-09-09T04:03:18;14.30;99.90
3626;DHT22;1827;50.534;8.316;2022-09-09T04:05:46;14.20;99.90
3626;DHT22;1827;50.534;8.316;2022-09-09T04:08:16;14.20;99.90
3626;DHT22;1827;50.534;8.316;2022-09-09T04:10:48;14.30;99.90
3626;DHT22;1827;50.534;8.316;2022-09-09T04:13:19;14.20;99.90
3626;DHT22;1827;50.534;8.316;2022-09-09T04:15:54;14.30;99.90
3626;DHT22;1827;50.534;8.316;2022-09-09T04:18:24;14.20;99.90
3626;DHT22;1827;50.534;8.316;2022-09-09T04:20:52;14.10;99.90
3626;DHT22;1827;50.534;8.316;2022-09-09T04:23:21;14.10;99.90
3626;DHT22;1827;50.534;8.316;2022-09-09T04:25:48;14.30;99.90
3626;DHT22;1827;50.534;8.316;2022-09-09T04:28:22;14.30;99.90
3626;DHT22;1827;50.534;8.316;2022-09-09T04:30:49;14.40;99.90
3626;DHT22;1827;50.534;8.316;2022-09-09T04:33:18;14.60;99.90
3626;DHT22;1827;50.534;8.316;2022-09-09T04:35:45;14.90;99.90
3626;DHT22;1827;50.534;8.316;2022-09-09T04:38:14;15.00;99.90
3626;DHT22;1827;50.534;8.316;2022-09-09T04:40:46;15.10;99.90
3626;DHT22;1827;50.534;8.316;2022-09-09T04:43:13;15.20;99.90
3626;DHT22;1827;50.534;8.316;2022-09-09T04:45:41;15.10;99.90
3626;DHT22;1827;50.534;8.316;2022-09-09T04:48:07;15.10;99.90
3626;DHT22;1827;50.534;8.316;2022-09-09T04:50:33;15.10;99.90
3626;DHT22;1827;50.534;8.316;2022-09-09T04:53:00;15.10;99.90
3626;DHT22;1827;50.534;8.316;2022-09-09T04:55:26;15.20;99.90
3626;DHT22;1827;50.534;8.316;2022-09-09T04:57:52;15.20;99.90
3626;DHT22;1827;50.534;8.316;2022-09-09T05:00:18;15.20;99.90
3626;DHT22;1827;50.534;8.316;2022-09-09T05:02:44;15.30;99.90
3626;DHT22;1827;50.534;8.316;2022-09-09T05:05:14;15.20;99.90
3626;DHT22;1827;50.534;8.316;2022-09-09T05:07:40;15.20;99.90
3626;DHT22;1827;50.534;8.316;2022-09-09T05:10:07;15.20;99.90
3626;DHT22;1827;50.534;8.316;2022-09-09T05:12:33;15.20;99.90
3626;DHT22;1827;50.534;8.316;2022-09-09T05:14:59;15.10;99.90
3626;DHT22;1827;50.534;8.316;2022-09-09T05:17:25;15.10;99.90
3626;DHT22;1827;50.534;8.316;2022-09-09T05:19:52;15.20;99.90
3626;DHT22;1827;50.534;8.316;2022-09-09T05:22:21;15.20;99.90
3626;DHT22;1827;50.534;8.316;2022-09-09T05:24:49;15.20;99.90
3626;DHT22;1827;50.534;8.316;2022-09-09T05:27:18;15.20;99.90
3626;DHT22;1827;50.534;8.316;2022-09-09T05:29:48;15.30;99.90
3626;DHT22;1827;50.534;8.316;2022-09-09T05:32:14;15.30;99.90
3626;DHT22;1827;50.534;8.316;2022-09-09T05:34:44;15.40;99.90
3626;DHT22;1827;50.534;8.316;2022-09-09T05:37:11;15.40;99.90
3626;DHT22;1827;50.534;8.316;2022-09-09T05:39:37;15.30;99.90
3626;DHT22;1827;50.534;8.316;2022-09-09T05:42:03;15.20;99.90
3626;DHT22;1827;50.534;8.316;2022-09-09T05:44:31;15.20;99.90
3626;DHT22;1827;50.534;8.316;2022-09-09T05:46:58;15.30;99.90
3626;DHT22;1827;50.534;8.316;2022-09-09T05:49:24;15.30;99.90
3626;DHT22;1827;50.534;8.316;2022-09-09T05:51:50;15.30;99.90
3626;DHT22;1827;50.534;8.316;2022-09-09T05:54:17;15.50;99.90
3626;DHT22;1827;50.534;8.316;2022-09-09T05:56:47;15.50;99.90
3626;DHT22;1827;50.534;8.316;2022-09-09T05:59:17;15.50;99.90
3626;DHT22;1827;50.534;8.316;2022-09-09T06:01:43;15.60;99.90
3626;DHT22;1827;50.534;8.316;2022-09-09T06:04:18;15.70;99.90
3626;DHT22;1827;50.534;8.316;2022-09-09T06:06:46;15.80;99.90
3626;DHT22;1827;50.534;8.316;2022-09-09T06:09:15;15.90;99.90
3626;DHT22;1827;50.534;8.316;2022-09-09T06:11:42;15.90;99.90
3626;DHT22;1827;50.534;8.316;2022-09-09T06:14:09;16.00;99.90
3626;DHT22;1827;50.534;8.316;2022-09-09T06:16:36;16.10;99.90
3626;DHT22;1827;50.534;8.316;2022-09-09T06:19:13;16.10;99.90
3626;DHT22;1827;50.534;8.316;2022-09-09T06:21:40;16.10;99.90
3626;DHT22;1827;50.534;8.316;2022-09-09T06:24:08;16.20;99.90
3626;DHT22;1827;50.534;8.316;2022-09-09T06:26:36;16.30;99.90
3626;DHT22;1827;50.534;8.316;2022-09-09T06:29:04;16.40;99.90
3626;DHT22;1827;50.534;8.316;2022-09-09T06:31:32;16.40;99.90
3626;DHT22;1827;50.534;8.316;2022-09-09T06:34:08;16.50;99.90
3626;DHT22;1827;50.534;8.316;2022-09-09T06:36:36;16.70;99.90
3626;DHT22;1827;50.534;8.316;2022-09-09T06:39:03;16.70;99.90
3626;DHT22;1827;50.534;8.316;2022-09-09T06:41:32;16.70;99.90
3626;DHT22;1827;50.534;8.316;2022-09-09T06:44:00;16.80;99.90
3626;DHT22;1827;50.534;8.316;2022-09-09T06:46:41;17.00;99.90
3626;DHT22;1827;50.534;8.316;2022-09-09T06:49:09;17.00;99.90
3626;DHT22;1827;50.534;8.316;2022-09-09T06:51:37;17.10;99.90
3626;DHT22;1827;50.534;8.316;2022-09-09T06:54:10;17.10;99.90
3626;DHT22;1827;50.534;8.316;2022-09-09T06:56:40;17.10;99.90
3626;DHT22;1827;50.534;8.316;2022-09-09T06:59:11;17.20;99.90
3626;DHT22;1827;50.534;8.316;2022-09-09T07:01:39;17.30;99.90
3626;DHT22;1827;50.534;8.316;2022-09-09T07:04:13;17.50;99.90
3626;DHT22;1827;50.534;8.316;2022-09-09T07:06:43;18.10;99.90
3626;DHT22;1827;50.534;8.316;2022-09-09T07:09:13;18.50;99.90
3626;DHT22;1827;50.534;8.316;2022-09-09T07:11:47;18.40;99.90
3626;DHT22;1827;50.534;8.316;2022-09-09T07:14:15;18.10;99.90
3626;DHT22;1827;50.534;8.316;2022-09-09T07:16:45;18.10;99.90
3626;DHT22;1827;50.534;8.316;2022-09-09T07:19:12;18.10;99.90
3626;DHT22;1827;50.534;8.316;2022-09-09T07:21:40;18.20;99.90
3626;DHT22;1827;50.534;8.316;2022-09-09T07:24:06;18.70;99.90
3626;DHT22;1827;50.534;8.316;2022-09-09T07:26:38;18.60;99.90
3626;DHT22;1827;50.534;8.316;2022-09-09T07:29:04;18.60;99.90
3626;DHT22;1827;50.534;8.316;2022-09-09T07:31:33;18.50;99.90
3626;DHT22;1827;50.534;8.316;2022-09-09T07:34:00;18.70;99.90
3626;DHT22;1827;50.534;8.316;2022-09-09T07:38:57;19.50;99.90
3626;DHT22;1827;50.534;8.316;2022-09-09T07:41:44;19.60;99.90
3626;DHT22;1827;50.534;8.316;2022-09-09T07:44:14;19.80;99.90
3626;DHT22;1827;50.534;8.316;2022-09-09T07:46:42;19.40;99.90
3626;DHT22;1827;50.534;8.316;2022-09-09T07:49:10;19.50;99.90
3626;DHT22;1827;50.534;8.316;2022-09-09T07:51:39;19.40;99.90
3626;DHT22;1827;50.534;8.316;2022-09-09T07:54:09;19.10;99.90
3626;DHT22;1827;50.534;8.316;2022-09-09T07:56:38;19.10;99.90
3626;DHT22;1827;50.534;8.316;2022-09-09T07:59:04;19.00;99.90
3626;DHT22;1827;50.534;8.316;2022-09-09T08:01:41;19.00;99.90
3626;DHT22;1827;50.534;8.316;2022-09-09T08:04:10;19.20;99.90
3626;DHT22;1827;50.534;8.316;2022-09-09T08:06:42;19.20;99.90
3626;DHT22;1827;50.534;8.316;2022-09-09T08:09:09;19.30;99.90
3626;DHT22;1827;50.534;8.316;2022-09-09T08:11:36;19.40;99.90
3626;DHT22;1827;50.534;8.316;2022-09-09T08:14:03;19.50;99.90
3626;DHT22;1827;50.534;8.316;2022-09-09T08:16:32;19.90;99.90
3626;DHT22;1827;50.534;8.316;2022-09-09T08:18:59;19.90;99.90
3626;DHT22;1827;50.534;8.316;2022-09-09T08:21:27;19.80;99.90
3626;DHT22;1827;50.534;8.316;2022-09-09T08:23:56;20.00;99.90
3626;DHT22;1827;50.534;8.316;2022-09-09T08:26:34;19.60;99.90
3626;DHT22;1827;50.534;8.316;2022-09-09T08:29:02;19.20;99.90
3626;DHT22;1827;50.534;8.316;2022-09-09T08:31:53;19.40;99.90
3626;DHT22;1827;50.534;8.316;2022-09-09T08:34:21;20.30;99.90
3626;DHT22;1827;50.534;8.316;2022-09-09T08:36:49;20.60;99.90
3626;DHT22;1827;50.534;8.316;2022-09-09T08:39:19;20.20;99.90
3626;DHT22;1827;50.534;8.316;2022-09-09T08:50:34;20.60;99.90
3626;DHT22;1827;50.534;8.316;2022-09-09T08:53:13;21.60;99.90
3626;DHT22;1827;50.534;8.316;2022-09-09T08:56:02;22.10;99.90
3626;DHT22;1827;50.534;8.316;2022-09-09T08:58:49;21.50;99.90
3626;DHT22;1827;50.534;8.316;2022-09-09T09:04:26;20.50;99.90
3626;DHT22;1827;50.534;8.316;2022-09-09T09:07:28;20.50;99.90
3626;DHT22;1827;50.534;8.316;2022-09-09T09:12:44;20.10;99.90
3626;DHT22;1827;50.534;8.316;2022-09-09T09:15:20;20.30;99.90
3626;DHT22;1827;50.534;8.316;2022-09-09T09:17:50;20.80;99.90
3626;DHT22;1827;50.534;8.316;2022-09-09T09:20:20;20.80;99.90
3626;DHT22;1827;50.534;8.316;2022-09-09T09:22:49;20.30;99.90
3626;DHT22;1827;50.534;8.316;2022-09-09T09:25:22;19.90;99.90
3626;DHT22;1827;50.534;8.316;2022-09-09T09:28:01;19.70;99.90
3626;DHT22;1827;50.534;8.316;2022-09-09T09:30:39;19.50;99.90
3626;DHT22;1827;50.534;8.316;2022-09-09T09:33:34;19.70;99.90
3626;DHT22;1827;50.534;8.316;2022-09-09T09:36:03;20.50;99.90
3626;DHT22;1827;50.534;8.316;2022-09-09T09:38:32;21.10;99.90
3626;DHT22;1827;50.534;8.316;2022-09-09T09:40:59;21.30;99.90
3626;DHT22;1827;50.534;8.316;2022-09-09T09:43:28;20.60;99.90
3626;DHT22;1827;50.534;8.316;2022-09-09T09:45:57;20.30;99.90
3626;DHT22;1827;50.534;8.316;2022-09-09T09:48:25;20.20;99.90
3626;DHT22;1827;50.534;8.316;2022-09-09T09:51:07;19.90;99.90
3626;DHT22;1827;50.534;8.316;2022-09-09T09:53:38;19.90;99.90
3626;DHT22;1827;50.534;8.316;2022-09-09T09:56:28;20.90;99.90
3626;DHT22;1827;50.534;8.316;2022-09-09T09:58:58;22.10;99.90
3626;DHT22;1827;50.534;8.316;2022-09-09T10:01:32;22.40;99.90
3626;DHT22;1827;50.534;8.316;2022-09-09T10:04:21;22.60;99.90
3626;DHT22;1827;50.534;8.316;2022-09-09T10:06:51;22.30;99.90
3626;DHT22;1827;50.534;8.316;2022-09-09T10:09:30;22.10;99.90
3626;DHT22;1827;50.534;8.316;2022-09-09T10:17:30;22.20;99.90
3626;DHT22;1827;50.534;8.316;2022-09-09T10:20:17;22.40;99.90
3626;DHT22;1827;50.534;8.316;2022-09-09T10:22:57;22.20;99.90
3626;DHT22;1827;50.534;8.316;2022-09-09T10:25:55;22.30;99.90
3626;DHT22;1827;50.534;8.316;2022-09-09T10:34:34;21.40;99.90
3626;DHT22;1827;50.534;8.316;2022-09-09T10:37:16;21.40;99.90
3626;DHT22;1827;50.534;8.316;2022-09-09T10:39:48;21.60;99.90
3626;DHT22;1827;50.534;8.316;2022-09-09T10:42:19;22.30;99.90
3626;DHT22;1827;50.534;8.316;2022-09-09T10:45:06;23.10;99.90
3626;DHT22;1827;50.534;8.316;2022-09-09T10:53:48;22.80;99.90
3626;DHT22;1827;50.534;8.316;2022-09-09T10:56:18;22.20;99.90
3626;DHT22;1827;50.534;8.316;2022-09-09T10:59:00;22.50;99.90
3626;DHT22;1827;50.534;8.316;2022-09-09T11:01:43;23.80;99.90
3626;DHT22;1827;50.534;8.316;2022-09-09T11:06:49;23.70;99.90
3626;DHT22;1827;50.534;8.316;2022-09-09T11:09:23;24.20;99.90
3626;DHT22;1827;50.534;8.316;2022-09-09T11:11:56;24.30;99.90
3626;DHT22;1827;50.534;8.316;2022-09-09T11:14:33;24.50;99.90
3626;DHT22;1827;50.534;8.316;2022-09-09T11:17:05;24.80;99.90
3626;DHT22;1827;50.534;8.316;2022-09-09T11:19:43;24.40;99.90
3626;DHT22;1827;50.534;8.316;2022-09-09T11:30:21;25.10;99.90
3626;DHT22;1827;50.534;8.316;2022-09-09T11:41:00;25.30;99.90
3626;DHT22;1827;50.534;8.316;2022-09-09T11:43:32;25.60;99.90
3626;DHT22;1827;50.534;8.316;2022-09-09T11:46:02;25.50;99.90
3626;DHT22;1827;50.534;8.316;2022-09-09T11:48:38;25.40;99.90
3626;DHT22;1827;50.534;8.316;2022-09-09T11:51:10;25.70;99.90
3626;DHT22;1827;50.534;8.316;2022-09-09T11:56:45;26.10;99.90
3626;DHT22;1827;50.534;8.316;2022-09-09T11:59:29;25.80;99.90
3626;DHT22;1827;50.534;8.316;2022-09-09T12:02:14;26.20;99.90
3626;DHT22;1827;50.534;8.316;2022-09-09T12:04:54;26.50;99.90
3626;DHT22;1827;50.534;8.316;2022-09-09T12:12:28;25.40;99.90
3626;DHT22;1827;50.534;8.316;2022-09-09T12:17:49;24.60;99.90
3626;DHT22;1827;50.534;8.316;2022-09-09T12:20:22;25.00;99.90
3626;DHT22;1827;50.534;8.316;2022-09-09T12:33:35;23.70;99.90
3626;DHT22;1827;50.534;8.316;2022-09-09T12:36:03;23.90;99.90
3626;DHT22;1827;50.534;8.316;2022-09-09T12:38:34;23.90;99.90
3626;DHT22;1827;50.534;8.316;2022-09-09T12:41:00;24.70;99.90
3626;DHT22;1827;50.534;8.316;2022-09-09T12:43:27;25.60;99.90
3626;DHT22;1827;50.534;8.316;2022-09-09T12:46:08;25.20;99.90
3626;DHT22;1827;50.534;8.316;2022-09-09T12:48:40;25.80;99.90
3626;DHT22;1827;50.534;8.316;2022-09-09T12:51:29;24.40;99.90
3626;DHT22;1827;50.534;8.316;2022-09-09T12:53:56;24.10;99.90
3626;DHT22;1827;50.534;8.316;2022-09-09T12:56:27;24.20;99.90
3626;DHT22;1827;50.534;8.316;2022-09-09T12:58:56;24.00;99.90
3626;DHT22;1827;50.534;8.316;2022-09-09T13:01:32;23.60;99.90
3626;DHT22;1827;50.534;8.316;2022-09-09T13:03:59;22.90;99.90
3626;DHT22;1827;50.534;8.316;2022-09-09T13:06:27;22.80;99.90
3626;DHT22;1827;50.534;8.316;2022-09-09T13:08:55;22.30;99.90
3626;DHT22;1827;50.534;8.316;2022-09-09T13:13:54;23.00;99.90
3626;DHT22;1827;50.534;8.316;2022-09-09T13:16:30;22.90;99.90
3626;DHT22;1827;50.534;8.316;2022-09-09T13:19:17;23.00;99.90
3626;DHT22;1827;50.534;8.316;2022-09-09T13:21:43;23.30;99.90
3626;DHT22;1827;50.534;8.316;2022-09-09T13:24:33;23.60;99.90
3626;DHT22;1827;50.534;8.316;2022-09-09T13:27:19;23.10;99.90
3626;DHT22;1827;50.534;8.316;2022-09-09T13:29:53;23.10;99.90
3626;DHT22;1827;50.534;8.316;2022-09-09T13:32:23;22.60;99.90
3626;DHT22;1827;50.534;8.316;2022-09-09T13:34:59;23.10;99.90
3626;DHT22;1827;50.534;8.316;2022-09-09T13:37:44;23.50;99.90
3626;DHT22;1827;50.534;8.316;2022-09-09T13:40:18;23.40;99.90
3626;DHT22;1827;50.534;8.316;2022-09-09T13:42:45;23.60;99.90
3626;DHT22;1827;50.534;8.316;2022-09-09T13:45:22;23.30;99.90
3626;DHT22;1827;50.534;8.316;2022-09-09T13:47:49;23.50;99.90
3626;DHT22;1827;50.534;8.316;2022-09-09T13:50:25;23.60;99.90
3626;DHT22;1827;50.534;8.316;2022-09-09T13:52:53;23.70;99.90
3626;DHT22;1827;50.534;8.316;2022-09-09T13:55:22;24.10;99.90
3626;DHT22;1827;50.534;8.316;2022-09-09T13:57:55;24.30;99.90
3626;DHT22;1827;50.534;8.316;2022-09-09T14:00:22;23.90;99.90
3626;DHT22;1827;50.534;8.316;2022-09-09T14:02:49;24.00;99.90
3626;DHT22;1827;50.534;8.316;2022-09-09T14:05:17;23.60;99.90
3626;DHT22;1827;50.534;8.316;2022-09-09T14:07:43;23.90;99.90
3626;DHT22;1827;50.534;8.316;2022-09-09T14:10:11;23.70;99.90
3626;DHT22;1827;50.534;8.316;2022-09-09T14:12:36;23.90;99.90
3626;DHT22;1827;50.534;8.316;2022-09-09T14:15:04;23.60;99.90
3626;DHT22;1827;50.534;8.316;2022-09-09T14:17:30;23.20;99.90
3626;DHT22;1827;50.534;8.316;2022-09-09T14:19:57;22.70;99.90
3626;DHT22;1827;50.534;8.316;2022-09-09T14:22:23;22.80;99.90
3626;DHT22;1827;50.534;8.316;2022-09-09T14:24:49;23.10;99.90
3626;DHT22;1827;50.534;8.316;2022-09-09T14:27:16;23.20;99.90
3626;DHT22;1827;50.534;8.316;2022-09-09T14:29:44;22.80;99.90
3626;DHT22;1827;50.534;8.316;2022-09-09T14:32:10;22.50;99.90
3626;DHT22;1827;50.534;8.316;2022-09-09T14:34:36;22.10;99.90
3626;DHT22;1827;50.534;8.316;2022-09-09T14:37:02;22.00;99.90
3626;DHT22;1827;50.534;8.316;2022-09-09T14:39:28;21.90;99.90
3626;DHT22;1827;50.534;8.316;2022-09-09T14:41:54;21.70;99.90
3626;DHT22;1827;50.534;8.316;2022-09-09T14:44:20;21.60;99.90
3626;DHT22;1827;50.534;8.316;2022-09-09T14:46:46;21.60;99.90
3626;DHT22;1827;50.534;8.316;2022-09-09T14:49:11;21.70;99.90
3626;DHT22;1827;50.534;8.316;2022-09-09T14:51:38;21.80;99.90
3626;DHT22;1827;50.534;8.316;2022-09-09T14:54:04;21.50;99.90
3626;DHT22;1827;50.534;8.316;2022-09-09T14:56:32;21.10;99.90
3626;DHT22;1827;50.534;8.316;2022-09-09T14:59:01;20.80;99.90
3626;DHT22;1827;50.534;8.316;2022-09-09T15:01:28;20.70;99.90
3626;DHT22;1827;50.534;8.316;2022-09-09T15:04:00;20.70;99.90
3626;DHT22;1827;50.534;8.316;2022-09-09T15:06:31;20.60;99.90
3626;DHT22;1827;50.534;8.316;2022-09-09T15:08:59;20.40;99.90
3626;DHT22;1827;50.534;8.316;2022-09-09T15:11:27;20.20;99.90
3626;DHT22;1827;50.534;8.316;2022-09-09T15:13:53;19.90;99.90
3626;DHT22;1827;50.534;8.316;2022-09-09T15:16:21;19.80;99.90
3626;DHT22;1827;50.534;8.316;2022-09-09T15:18:51;19.70;99.90
3626;DHT22;1827;50.534;8.316;2022-09-09T15:21:19;19.70;99.90
3626;DHT22;1827;50.534;8.316;2022-09-09T15:23:45;19.70;99.90
3626;DHT22;1827;50.534;8.316;2022-09-09T15:26:11;19.50;99.90
3626;DHT22;1827;50.534;8.316;2022-09-09T15:28:40;19.60;99.90
3626;DHT22;1827;50.534;8.316;2022-09-09T15:31:09;19.60;99.90
3626;DHT22;1827;50.534;8.316;2022-09-09T15:33:36;19.30;99.90
3626;DHT22;1827;50.534;8.316;2022-09-09T15:38:38;18.90;99.90
3626;DHT22;1827;50.534;8.316;2022-09-09T15:41:04;18.80;99.90
3626;DHT22;1827;50.534;8.316;2022-09-09T15:43:30;18.70;99.90
3626;DHT22;1827;50.534;8.316;2022-09-09T15:46:05;18.70;99.90
3626;DHT22;1827;50.534;8.316;2022-09-09T15:48:33;18.70;99.90
3626;DHT22;1827;50.534;8.316;2022-09-09T15:51:03;18.70;99.90
3626;DHT22;1827;50.534;8.316;2022-09-09T15:53:30;18.70;99.90
3626;DHT22;1827;50.534;8.316;2022-09-09T15:55:58;18.70;99.90
3626;DHT22;1827;50.534;8.316;2022-09-09T15:58:24;18.70;99.90
3626;DHT22;1827;50.534;8.316;2022-09-09T16:00:50;18.60;99.90
3626;DHT22;1827;50.534;8.316;2022-09-09T16:03:16;18.40;99.90
3626;DHT22;1827;50.534;8.316;2022-09-09T16:05:42;18.00;99.90
3626;DHT22;1827;50.534;8.316;2022-09-09T16:08:08;17.60;99.90
3626;DHT22;1827;50.534;8.316;2022-09-09T16:10:34;17.30;99.90
3626;DHT22;1827;50.534;8.316;2022-09-09T16:13:00;17.20;99.90
3626;DHT22;1827;50.534;8.316;2022-09-09T16:15:25;17.00;99.90
3626;DHT22;1827;50.534;8.316;2022-09-09T16:17:53;16.90;99.90
3626;DHT22;1827;50.534;8.316;2022-09-09T16:20:19;16.80;99.90
3626;DHT22;1827;50.534;8.316;2022-09-09T16:22:45;16.80;99.90
3626;DHT22;1827;50.534;8.316;2022-09-09T16:25:11;16.70;99.90
3626;DHT22;1827;50.534;8.316;2022-09-09T16:27:37;16.60;99.90
3626;DHT22;1827;50.534;8.316;2022-09-09T16:30:03;16.60;99.90
3626;DHT22;1827;50.534;8.316;2022-09-09T16:32:29;16.40;99.90
3626;DHT22;1827;50.534;8.316;2022-09-09T16:34:55;16.40;99.90
3626;DHT22;1827;50.534;8.316;2022-09-09T16:37:24;16.50;99.90
3626;DHT22;1827;50.534;8.316;2022-09-09T16:39:49;16.50;99.90
3626;DHT22;1827;50.534;8.316;2022-09-09T16:42:15;16.60;99.90
3626;DHT22;1827;50.534;8.316;2022-09-09T16:44:42;16.60;99.90
3626;DHT22;1827;50.534;8.316;2022-09-09T16:47:07;16.60;99.90
3626;DHT22;1827;50.534;8.316;2022-09-09T16:49:33;16.70;99.90
3626;DHT22;1827;50.534;8.316;2022-09-09T16:51:59;16.80;99.90
3626;DHT22;1827;50.534;8.316;2022-09-09T16:54:25;16.90;99.90
3626;DHT22;1827;50.534;8.316;2022-09-09T16:57:00;16.90;99.90
3626;DHT22;1827;50.534;8.316;2022-09-09T16:59:26;16.90;99.90
3626;DHT22;1827;50.534;8.316;2022-09-09T17:01:52;16.90;99.90
3626;DHT22;1827;50.534;8.316;2022-09-09T17:04:20;16.80;99.90
3626;DHT22;1827;50.534;8.316;2022-09-09T17:06:47;16.80;99.90
3626;DHT22;1827;50.534;8.316;2022-09-09T17:09:15;16.90;99.90
3626;DHT22;1827;50.534;8.316;2022-09-09T17:11:41;16.70;99.90
3626;DHT22;1827;50.534;8.316;2022-09-09T17:14:10;16.80;99.90
3626;DHT22;1827;50.534;8.316;2022-09-09T17:16:37;16.70;99.90
3626;DHT22;1827;50.534;8.316;2022-09-09T17:19:05;16.80;99.90
3626;DHT22;1827;50.534;8.316;2022-09-09T17:21:32;16.90;99.90
3626;DHT22;1827;50.534;8.316;2022-09-09T17:23:58;16.80;99.90
3626;DHT22;1827;50.534;8.316;2022-09-09T17:26:29;16.60;99.90
3626;DHT22;1827;50.534;8.316;2022-09-09T17:28:56;16.60;99.90
3626;DHT22;1827;50.534;8.316;2022-09-09T17:31:24;16.50;99.90
3626;DHT22;1827;50.534;8.316;2022-09-09T17:33:51;16.40;99.90
3626;DHT22;1827;50.534;8.316;2022-09-09T17:36:24;16.40;99.90
3626;DHT22;1827;50.534;8.316;2022-09-09T17:38:51;16.20;99.90
3626;DHT22;1827;50.534;8.316;2022-09-09T17:41:22;16.30;99.90
3626;DHT22;1827;50.534;8.316;2022-09-09T17:43:50;16.20;99.90
3626;DHT22;1827;50.534;8.316;2022-09-09T17:46:22;16.00;99.90
3626;DHT22;1827;50.534;8.316;2022-09-09T17:49:04;15.90;99.90
3626;DHT22;1827;50.534;8.316;2022-09-09T17:51:33;15.90;99.90
3626;DHT22;1827;50.534;8.316;2022-09-09T17:54:09;15.80;99.90
3626;DHT22;1827;50.534;8.316;2022-09-09T17:56:38;15.70;99.90
3626;DHT22;1827;50.534;8.316;2022-09-09T17:59:14;15.60;99.90
3626;DHT22;1827;50.534;8.316;2022-09-09T18:01:45;15.60;99.90
3626;DHT22;1827;50.534;8.316;2022-09-09T18:04:25;15.60;99.90
3626;DHT22;1827;50.534;8.316;2022-09-09T18:07:02;15.50;99.90